CST,Max TemperatureF,Mean TemperatureF,Min TemperatureF,Max Dew PointF,MeanDew PointF,Min DewpointF,Max Humidity, Mean Humidity, Min Humidity, Max Sea Level PressureIn, Mean Sea Level PressureIn, Min Sea Level PressureIn, Max VisibilityMiles, Mean VisibilityMiles, Min VisibilityMiles, Max Wind SpeedMPH, Mean Wind SpeedMPH, Max Gust SpeedMPH,PrecipitationIn, CloudCover, Events, WindDirDegrees
2013-11-1,73,62,50,51,48,43,96,66,35,29.89,29.83,29.78,10,10,10,18,5,25,T,1,,247
2013-11-2,62,52,41,48,41,37,83,65,47,30.21,30.06,29.90,10,10,10,20,8,28,0.00,2,,319
2013-11-3,62,51,39,41,37,34,92,65,37,30.31,30.24,30.17,10,10,10,12,3,15,0.00,1,,104
2013-11-4,67,57,47,46,41,36,66,53,40,30.29,30.23,30.18,10,10,10,20,8,25,0.00,7,,154
2013-11-5,73,65,56,51,47,43,66,57,47,30.29,30.20,30.14,10,10,10,20,11,26,0.00,6,,149
2013-11-6,62,55,47,61,51,39,93,74,55,30.26,30.11,30.04,10,8,2,21,11,28,0.29,7,Rain,193
2013-11-7,57,49,40,39,35,32,82,61,40,30.41,30.35,30.27,10,10,10,20,7,25,0.00,1,,345
2013-11-8,63,50,37,39,35,31,92,61,30,30.39,30.31,30.22,10,10,10,9,3,13,0.00,3,,160
2013-11-9,62,53,44,44,40,36,77,62,46,30.29,30.24,30.20,10,10,10,14,4,23,T,6,Rain,198
2013-11-10,69,57,45,47,41,37,92,63,34,30.35,30.30,30.27,10,10,10,13,4,17,0.00,2,,43
2013-11-11,72,57,42,48,41,35,83,57,31,30.30,30.24,30.17,10,10,10,10,2,13,0.00,2,,207
2013-11-12,57,45,32,48,28,19,79,59,39,30.67,30.54,30.23,10,10,7,26,16,36,0.00,5,,12
2013-11-13,50,39,28,26,21,16,78,52,26,30.72,30.59,30.45,10,10,10,13,3,16,0.00,0,,48
2013-11-14,58,43,27,25,22,17,78,50,22,30.44,30.31,30.15,10,10,10,16,6,23,0.00,3,,179
2013-11-15,61,54,46,52,44,27,93,68,42,30.16,30.09,30.02,10,8,0,13,7,,0.09,7,Rain,157
2013-11-16,69,61,53,63,58,50,93,86,78,30.04,29.96,29.86,10,7,0,23,12,30,0.00,8,Fog,169
2013-11-17,77,70,62,70,63,35,93,62,31,29.99,29.79,29.72,10,9,2,25,15,36,0.84,7,Rain,200
2013-11-18,66,56,46,37,32,27,59,44,28,30.25,30.16,30.00,10,10,10,17,8,22,0.00,1,,3
2013-11-19,54,47,39,28,26,20,57,42,26,30.31,30.23,30.17,10,10,10,15,9,21,0.00,5,,49
2013-11-20,65,51,36,40,33,28,75,55,34,30.19,30.13,30.08,10,10,10,16,7,23,0.00,3,,127
2013-11-21,68,61,53,59,53,41,90,75,59,30.19,30.16,30.12,10,9,2,20,9,24,0.63,8,Rain,155
2013-11-22,61,53,45,59,52,39,93,85,76,30.40,30.26,30.14,10,6,1,23,12,29,0.58,8,Rain-Thunderstorm,30
2013-11-23,48,40,31,38,29,15,86,60,33,30.58,30.48,30.38,10,9,6,24,15,33,0.01,7,Rain,16
2013-11-24,38,31,24,17,14,12,68,52,35,30.66,30.56,30.44,10,10,10,24,13,31,0.00,5,Snow,43
2013-11-25,37,35,33,34,27,13,85,63,41,30.41,30.28,30.14,10,10,7,13,6,16,0.19,8,Rain,68
2013-11-26,42,38,34,36,32,22,92,73,54,30.15,30.05,29.97,10,8,4,29,12,37,0.04,7,Rain,5
2013-11-27,34,29,23,23,16,12,74,59,43,30.41,30.31,30.15,10,10,10,22,10,30,0.00,2,,346
2013-11-28,47,34,21,25,19,15,77,55,33,30.49,30.44,30.39,10,10,10,13,5,15,0.00,2,,195
2013-11-29,57,43,28,30,27,24,78,55,32,30.57,30.50,30.44,10,10,10,8,1,13,0.00,1,,150
2013-11-30,59,45,30,32,28,24,78,54,30,30.45,30.33,30.22,10,10,10,15,7,22,0.00,4,,190